KMSN

Dane County Regional-Truax Field Airport

Madison, Wisconsin, USA
KMSN 261120Z 2612/2712 23007KT P6SM BKN250 FM262000 24009KT P6SM BKN200 FM270100 23007KT P6SM SCT050 BKN100 FM270500 34008KT P6SM BKN080 FM270800 33004KT P6SM SCT035
Issued Valid From Valid To
Apr-26 @ 11:20 UTC
(2 hours ago)
Apr-26 @ 12:00 UTC
(2 hours ago)
Apr-27 @ 12:00 UTC
(in 22 hours)
Apr-26 @ 12:00 to Apr-26 @ 20:00
KMSN 261120Z 2612/2712 23007KT P6SM BKN250
Wind Visibility Clouds
230° at 7 knots Greater than 6 miles
  • Broken at 25,000' AGL
From Apr-26 @ 20:00 to Apr-27 @ 01:00
FM262000 24009KT P6SM BKN200
Wind Visibility Clouds
240° at 9 knots Greater than 6 miles
  • Broken at 20,000' AGL
From Apr-27 @ 01:00 to Apr-27 @ 05:00
FM270100 23007KT P6SM SCT050 BKN100
Wind Visibility Clouds
230° at 7 knots Greater than 6 miles
  • Scattered at 5,000' AGL
  • Broken at 10,000' AGL
From Apr-27 @ 05:00 to Apr-27 @ 08:00
FM270500 34008KT P6SM BKN080
Wind Visibility Clouds
340° at 8 knots Greater than 6 miles
  • Broken at 8,000' AGL
From Apr-27 @ 08:00 to Apr-27 @ 12:00
FM270800 33004KT P6SM SCT035
Wind Visibility Clouds
330° at 4 knots Greater than 6 miles
  • Scattered at 3,500' AGL
KMSN 261120Z 2612/2712 23007KT P6SM BKN250 FM262000 24009KT P6SM BKN200 FM270100 23007KT P6SM SCT050 BKN100 FM270500 34008KT P6SM BKN080 FM270800 33004KT P6SM SCT035
Issued Apr-26 @ 11:20 UTC
(2 hours ago)
Valid From Apr-26 @ 12:00 UTC
(2 hours ago)
Valid To Apr-27 @ 12:00 UTC
(in 22 hours)
Apr-26 @ 12:00 - Apr-26 @ 20:00
Wind Visibility
230° at 7 knots Greater than 6 miles
Clouds
  • Broken at 25,000' AGL
From Apr-26 @ 20:00 - Apr-27 @ 01:00
Wind Visibility
240° at 9 knots Greater than 6 miles
Clouds
  • Broken at 20,000' AGL
From Apr-27 @ 01:00 - Apr-27 @ 05:00
Wind Visibility
230° at 7 knots Greater than 6 miles
Clouds
  • Scattered at 5,000' AGL
  • Broken at 10,000' AGL
From Apr-27 @ 05:00 - Apr-27 @ 08:00
Wind Visibility
340° at 8 knots Greater than 6 miles
Clouds
  • Broken at 8,000' AGL
From Apr-27 @ 08:00 - Apr-27 @ 12:00
Wind Visibility
330° at 4 knots Greater than 6 miles
Clouds
  • Scattered at 3,500' AGL